sensor_id;sensor_type;location;lat;lon;timestamp;P1;durP1;ratioP1;P2;durP2;ratioP2
24743;SDS011;12844;52.110;5.548;2022-11-20T01:23:09;5.70;;;5.07;;
24743;SDS011;12844;52.110;5.548;2022-11-20T01:25:34;6.05;;;5.43;;
24743;SDS011;12844;52.110;5.548;2022-11-20T01:28:00;6.97;;;5.80;;
24743;SDS011;12844;52.110;5.548;2022-11-20T01:30:25;6.50;;;5.80;;
24743;SDS011;12844;52.110;5.548;2022-11-20T01:32:51;5.80;;;5.10;;
24743;SDS011;12844;52.110;5.548;2022-11-20T01:35:16;5.72;;;5.07;;
24743;SDS011;12844;52.110;5.548;2022-11-20T01:37:42;6.18;;;5.57;;
24743;SDS011;12844;52.110;5.548;2022-11-20T01:40:08;5.78;;;5.18;;
24743;SDS011;12844;52.110;5.548;2022-11-20T01:42:34;5.90;;;5.07;;
24743;SDS011;12844;52.110;5.548;2022-11-20T01:48:12;5.78;;;5.13;;
24743;SDS011;12844;52.110;5.548;2022-11-20T01:50:38;6.05;;;5.45;;
24743;SDS011;12844;52.110;5.548;2022-11-20T01:53:05;6.85;;;5.60;;
24743;SDS011;12844;52.110;5.548;2022-11-20T01:55:35;6.22;;;5.63;;
24743;SDS011;12844;52.110;5.548;2022-11-20T01:58:04;5.95;;;5.35;;
24743;SDS011;12844;52.110;5.548;2022-11-20T02:00:30;6.65;;;5.72;;
24743;SDS011;12844;52.110;5.548;2022-11-20T02:02:57;6.20;;;5.60;;
24743;SDS011;12844;52.110;5.548;2022-11-20T02:07:56;7.07;;;5.78;;
24743;SDS011;12844;52.110;5.548;2022-11-20T02:10:23;6.30;;;5.63;;
24743;SDS011;12844;52.110;5.548;2022-11-20T02:12:48;6.22;;;5.63;;
24743;SDS011;12844;52.110;5.548;2022-11-20T02:15:33;6.65;;;5.95;;
24743;SDS011;12844;52.110;5.548;2022-11-20T02:17:58;6.65;;;5.43;;
24743;SDS011;12844;52.110;5.548;2022-11-20T02:20:24;6.65;;;5.95;;
24743;SDS011;12844;52.110;5.548;2022-11-20T02:22:52;6.13;;;5.30;;
24743;SDS011;12844;52.110;5.548;2022-11-20T02:25:19;5.82;;;5.22;;
24743;SDS011;12844;52.110;5.548;2022-11-20T02:27:45;7.07;;;5.97;;
24743;SDS011;12844;52.110;5.548;2022-11-20T02:30:12;6.75;;;6.00;;
24743;SDS011;12844;52.110;5.548;2022-11-20T02:32:38;6.18;;;5.57;;
24743;SDS011;12844;52.110;5.548;2022-11-20T02:35:39;7.18;;;5.88;;
24743;SDS011;12844;52.110;5.548;2022-11-20T02:37:56;6.20;;;5.60;;
24743;SDS011;12844;52.110;5.548;2022-11-20T02:40:25;6.07;;;5.47;;
24743;SDS011;12844;52.110;5.548;2022-11-20T02:42:57;6.90;;;6.15;;
24743;SDS011;12844;52.110;5.548;2022-11-20T02:45:23;5.72;;;5.13;;
24743;SDS011;12844;52.110;5.548;2022-11-20T02:47:49;6.35;;;5.47;;
24743;SDS011;12844;52.110;5.548;2022-11-20T02:50:14;6.95;;;5.47;;
24743;SDS011;12844;52.110;5.548;2022-11-20T02:52:40;6.72;;;5.85;;
24743;SDS011;12844;52.110;5.548;2022-11-20T02:55:06;6.55;;;5.72;;
24743;SDS011;12844;52.110;5.548;2022-11-20T02:57:32;6.32;;;5.60;;
24743;SDS011;12844;52.110;5.548;2022-11-20T02:59:58;5.93;;;5.32;;
24743;SDS011;12844;52.110;5.548;2022-11-20T03:02:23;7.53;;;5.70;;
24743;SDS011;12844;52.110;5.548;2022-11-20T03:04:49;6.78;;;6.07;;
24743;SDS011;12844;52.110;5.548;2022-11-20T03:07:14;6.30;;;5.43;;
24743;SDS011;12844;52.110;5.548;2022-11-20T03:09:40;7.47;;;6.30;;
24743;SDS011;12844;52.110;5.548;2022-11-20T03:12:05;7.05;;;6.20;;
24743;SDS011;12844;52.110;5.548;2022-11-20T03:14:31;6.63;;;5.90;;
24743;SDS011;12844;52.110;5.548;2022-11-20T03:16:57;6.35;;;5.75;;
24743;SDS011;12844;52.110;5.548;2022-11-20T03:19:22;7.60;;;6.13;;
24743;SDS011;12844;52.110;5.548;2022-11-20T03:21:48;6.70;;;5.80;;
24743;SDS011;12844;52.110;5.548;2022-11-20T03:24:14;7.05;;;6.30;;
24743;SDS011;12844;52.110;5.548;2022-11-20T03:26:39;7.05;;;6.35;;
24743;SDS011;12844;52.110;5.548;2022-11-20T03:29:05;7.20;;;6.00;;
24743;SDS011;12844;52.110;5.548;2022-11-20T03:31:33;7.13;;;6.03;;
24743;SDS011;12844;52.110;5.548;2022-11-20T03:34:00;7.00;;;6.30;;
24743;SDS011;12844;52.110;5.548;2022-11-20T03:36:27;7.00;;;6.30;;
24743;SDS011;12844;52.110;5.548;2022-11-20T03:38:53;6.65;;;5.68;;
24743;SDS011;12844;52.110;5.548;2022-11-20T03:41:24;8.15;;;6.30;;
24743;SDS011;12844;52.110;5.548;2022-11-20T03:43:53;6.90;;;6.20;;
24743;SDS011;12844;52.110;5.548;2022-11-20T03:46:23;6.55;;;5.68;;
24743;SDS011;12844;52.110;5.548;2022-11-20T03:48:49;7.38;;;6.15;;
24743;SDS011;12844;52.110;5.548;2022-11-20T03:51:16;6.63;;;5.97;;
24743;SDS011;12844;52.110;5.548;2022-11-20T03:53:54;6.70;;;6.00;;
24743;SDS011;12844;52.110;5.548;2022-11-20T03:56:23;7.72;;;6.65;;
24743;SDS011;12844;52.110;5.548;2022-11-20T03:58:50;7.15;;;6.10;;
24743;SDS011;12844;52.110;5.548;2022-11-20T04:01:17;6.10;;;5.47;;
24743;SDS011;12844;52.110;5.548;2022-11-20T04:03:47;7.00;;;6.25;;
24743;SDS011;12844;52.110;5.548;2022-11-20T04:06:18;7.00;;;6.28;;
24743;SDS011;12844;52.110;5.548;2022-11-20T04:11:12;7.18;;;6.07;;
24743;SDS011;12844;52.110;5.548;2022-11-20T04:13:45;7.93;;;6.03;;
24743;SDS011;12844;52.110;5.548;2022-11-20T04:16:12;6.72;;;5.95;;
24743;SDS011;12844;52.110;5.548;2022-11-20T04:18:38;7.20;;;6.25;;
24743;SDS011;12844;52.110;5.548;2022-11-20T04:21:04;7.47;;;5.88;;
24743;SDS011;12844;52.110;5.548;2022-11-20T04:23:30;7.15;;;6.38;;
24743;SDS011;12844;52.110;5.548;2022-11-20T04:26:00;6.93;;;6.07;;
24743;SDS011;12844;52.110;5.548;2022-11-20T04:28:30;7.18;;;6.10;;
24743;SDS011;12844;52.110;5.548;2022-11-20T04:31:01;6.97;;;6.00;;
24743;SDS011;12844;52.110;5.548;2022-11-20T04:33:30;6.72;;;5.85;;
24743;SDS011;12844;52.110;5.548;2022-11-20T04:35:59;7.32;;;6.35;;
24743;SDS011;12844;52.110;5.548;2022-11-20T04:38:26;7.20;;;6.50;;
24743;SDS011;12844;52.110;5.548;2022-11-20T04:40:55;7.18;;;5.88;;
24743;SDS011;12844;52.110;5.548;2022-11-20T04:45:51;6.35;;;5.63;;
24743;SDS011;12844;52.110;5.548;2022-11-20T04:48:17;7.75;;;6.15;;
24743;SDS011;12844;52.110;5.548;2022-11-20T04:50:42;7.07;;;6.38;;
24743;SDS011;12844;52.110;5.548;2022-11-20T04:53:08;7.43;;;5.93;;
24743;SDS011;12844;52.110;5.548;2022-11-20T04:55:33;6.85;;;6.10;;
24743;SDS011;12844;52.110;5.548;2022-11-20T04:57:59;7.30;;;6.30;;
24743;SDS011;12844;52.110;5.548;2022-11-20T05:00:24;6.45;;;5.82;;
24743;SDS011;12844;52.110;5.548;2022-11-20T05:02:50;7.45;;;6.28;;
24743;SDS011;12844;52.110;5.548;2022-11-20T05:05:15;7.72;;;6.43;;
24743;SDS011;12844;52.110;5.548;2022-11-20T05:07:41;7.22;;;6.22;;
24743;SDS011;12844;52.110;5.548;2022-11-20T05:10:06;7.65;;;6.40;;
24743;SDS011;12844;52.110;5.548;2022-11-20T05:12:32;6.90;;;6.20;;
24743;SDS011;12844;52.110;5.548;2022-11-20T05:14:57;7.57;;;6.30;;
24743;SDS011;12844;52.110;5.548;2022-11-20T05:17:23;7.70;;;6.47;;
24743;SDS011;12844;52.110;5.548;2022-11-20T05:19:48;7.20;;;6.43;;
24743;SDS011;12844;52.110;5.548;2022-11-20T05:22:14;6.88;;;6.13;;
24743;SDS011;12844;52.110;5.548;2022-11-20T05:24:39;6.90;;;6.18;;
24743;SDS011;12844;52.110;5.548;2022-11-20T05:27:05;7.35;;;6.32;;
24743;SDS011;12844;52.110;5.548;2022-11-20T05:29:30;7.00;;;6.30;;
24743;SDS011;12844;52.110;5.548;2022-11-20T05:31:56;7.88;;;6.50;;
24743;SDS011;12844;52.110;5.548;2022-11-20T05:34:22;8.13;;;6.93;;
24743;SDS011;12844;52.110;5.548;2022-11-20T05:36:47;7.65;;;6.43;;
24743;SDS011;12844;52.110;5.548;2022-11-20T05:39:13;7.00;;;6.30;;
24743;SDS011;12844;52.110;5.548;2022-11-20T05:41:38;7.70;;;6.57;;
24743;SDS011;12844;52.110;5.548;2022-11-20T05:44:04;7.47;;;6.32;;
24743;SDS011;12844;52.110;5.548;2022-11-20T05:46:29;6.75;;;5.93;;
24743;SDS011;12844;52.110;5.548;2022-11-20T05:48:55;8.95;;;7.13;;
24743;SDS011;12844;52.110;5.548;2022-11-20T05:51:21;6.95;;;6.25;;
24743;SDS011;12844;52.110;5.548;2022-11-20T05:53:47;7.70;;;6.53;;
24743;SDS011;12844;52.110;5.548;2022-11-20T05:56:14;7.13;;;6.43;;
24743;SDS011;12844;52.110;5.548;2022-11-20T05:58:42;6.70;;;6.00;;
24743;SDS011;12844;52.110;5.548;2022-11-20T06:01:12;6.90;;;6.20;;
24743;SDS011;12844;52.110;5.548;2022-11-20T06:03:41;7.63;;;6.40;;
24743;SDS011;12844;52.110;5.548;2022-11-20T06:06:10;7.20;;;6.50;;
24743;SDS011;12844;52.110;5.548;2022-11-20T06:08:37;6.78;;;6.07;;
24743;SDS011;12844;52.110;5.548;2022-11-20T06:11:03;6.85;;;6.20;;
24743;SDS011;12844;52.110;5.548;2022-11-20T06:13:30;6.80;;;6.07;;
24743;SDS011;12844;52.110;5.548;2022-11-20T06:15:56;7.10;;;6.40;;
24743;SDS011;12844;52.110;5.548;2022-11-20T06:18:21;7.15;;;6.25;;
24743;SDS011;12844;52.110;5.548;2022-11-20T06:20:47;7.03;;;6.32;;
24743;SDS011;12844;52.110;5.548;2022-11-20T06:23:12;7.05;;;6.35;;
24743;SDS011;12844;52.110;5.548;2022-11-20T06:25:42;7.35;;;6.50;;
24743;SDS011;12844;52.110;5.548;2022-11-20T06:28:08;8.82;;;7.10;;
24743;SDS011;12844;52.110;5.548;2022-11-20T06:30:33;7.57;;;6.75;;
24743;SDS011;12844;52.110;5.548;2022-11-20T06:33:00;8.48;;;6.38;;
24743;SDS011;12844;52.110;5.548;2022-11-20T06:35:25;6.78;;;6.07;;
24743;SDS011;12844;52.110;5.548;2022-11-20T06:37:51;7.60;;;6.72;;
24743;SDS011;12844;52.110;5.548;2022-11-20T06:40:16;6.60;;;5.95;;
24743;SDS011;12844;52.110;5.548;2022-11-20T06:42:42;7.10;;;6.40;;
24743;SDS011;12844;52.110;5.548;2022-11-20T06:45:08;7.47;;;6.72;;
24743;SDS011;12844;52.110;5.548;2022-11-20T06:47:34;6.75;;;5.97;;
24743;SDS011;12844;52.110;5.548;2022-11-20T06:49:59;7.18;;;6.30;;
24743;SDS011;12844;52.110;5.548;2022-11-20T06:52:25;7.20;;;6.50;;
24743;SDS011;12844;52.110;5.548;2022-11-20T06:54:50;7.30;;;6.50;;
24743;SDS011;12844;52.110;5.548;2022-11-20T06:57:16;7.35;;;6.25;;
24743;SDS011;12844;52.110;5.548;2022-11-20T06:59:41;6.93;;;6.22;;
24743;SDS011;12844;52.110;5.548;2022-11-20T07:02:10;8.77;;;6.82;;
24743;SDS011;12844;52.110;5.548;2022-11-20T07:04:37;7.30;;;6.60;;
24743;SDS011;12844;52.110;5.548;2022-11-20T07:07:03;7.70;;;6.63;;
24743;SDS011;12844;52.110;5.548;2022-11-20T07:09:28;7.00;;;6.30;;
24743;SDS011;12844;52.110;5.548;2022-11-20T07:11:54;7.00;;;6.30;;
24743;SDS011;12844;52.110;5.548;2022-11-20T07:14:19;7.72;;;6.75;;
24743;SDS011;12844;52.110;5.548;2022-11-20T07:16:45;8.43;;;6.50;;
24743;SDS011;12844;52.110;5.548;2022-11-20T07:19:10;7.65;;;6.68;;
24743;SDS011;12844;52.110;5.548;2022-11-20T07:21:36;6.97;;;6.28;;
24743;SDS011;12844;52.110;5.548;2022-11-20T07:24:01;7.47;;;6.68;;
24743;SDS011;12844;52.110;5.548;2022-11-20T07:26:27;7.78;;;6.82;;
24743;SDS011;12844;52.110;5.548;2022-11-20T07:28:52;8.05;;;6.68;;
24743;SDS011;12844;52.110;5.548;2022-11-20T07:31:18;8.25;;;6.88;;
24743;SDS011;12844;52.110;5.548;2022-11-20T07:33:43;7.82;;;7.03;;
24743;SDS011;12844;52.110;5.548;2022-11-20T07:36:09;7.65;;;6.68;;
24743;SDS011;12844;52.110;5.548;2022-11-20T07:38:34;8.05;;;7.05;;
24743;SDS011;12844;52.110;5.548;2022-11-20T07:41:00;7.50;;;6.68;;
24743;SDS011;12844;52.110;5.548;2022-11-20T07:43:26;7.85;;;7.05;;
24743;SDS011;12844;52.110;5.548;2022-11-20T07:45:52;8.25;;;7.32;;
24743;SDS011;12844;52.110;5.548;2022-11-20T07:48:20;8.50;;;7.20;;
24743;SDS011;12844;52.110;5.548;2022-11-20T07:50:45;7.25;;;6.50;;
24743;SDS011;12844;52.110;5.548;2022-11-20T07:53:11;7.18;;;6.32;;
24743;SDS011;12844;52.110;5.548;2022-11-20T07:55:37;7.78;;;6.63;;
24743;SDS011;12844;52.110;5.548;2022-11-20T07:58:03;7.53;;;6.72;;
24743;SDS011;12844;52.110;5.548;2022-11-20T08:00:28;7.75;;;6.57;;
24743;SDS011;12844;52.110;5.548;2022-11-20T08:02:54;8.15;;;6.60;;
24743;SDS011;12844;52.110;5.548;2022-11-20T08:05:20;8.02;;;6.85;;
24743;SDS011;12844;52.110;5.548;2022-11-20T08:07:45;8.27;;;7.07;;
24743;SDS011;12844;52.110;5.548;2022-11-20T08:10:12;7.82;;;6.68;;
24743;SDS011;12844;52.110;5.548;2022-11-20T08:12:49;7.70;;;6.90;;
24743;SDS011;12844;52.110;5.548;2022-11-20T08:15:34;7.75;;;6.95;;
24743;SDS011;12844;52.110;5.548;2022-11-20T08:18:04;7.72;;;6.72;;
24743;SDS011;12844;52.110;5.548;2022-11-20T08:20:31;7.82;;;6.88;;
24743;SDS011;12844;52.110;5.548;2022-11-20T08:22:58;7.72;;;6.35;;
24743;SDS011;12844;52.110;5.548;2022-11-20T08:25:25;7.75;;;6.95;;
24743;SDS011;12844;52.110;5.548;2022-11-20T08:27:51;7.93;;;6.90;;
24743;SDS011;12844;52.110;5.548;2022-11-20T08:30:16;8.05;;;7.00;;
24743;SDS011;12844;52.110;5.548;2022-11-20T08:32:42;8.40;;;6.93;;
24743;SDS011;12844;52.110;5.548;2022-11-20T08:35:08;7.68;;;6.88;;
24743;SDS011;12844;52.110;5.548;2022-11-20T08:37:33;7.72;;;6.93;;
24743;SDS011;12844;52.110;5.548;2022-11-20T08:39:59;7.20;;;6.50;;
24743;SDS011;12844;52.110;5.548;2022-11-20T08:42:24;7.63;;;6.65;;
24743;SDS011;12844;52.110;5.548;2022-11-20T08:44:50;7.53;;;6.80;;
24743;SDS011;12844;52.110;5.548;2022-11-20T08:47:15;7.25;;;6.32;;
24743;SDS011;12844;52.110;5.548;2022-11-20T08:49:41;7.78;;;6.97;;
24743;SDS011;12844;52.110;5.548;2022-11-20T08:52:06;7.47;;;6.70;;
24743;SDS011;12844;52.110;5.548;2022-11-20T08:54:32;8.25;;;7.22;;
24743;SDS011;12844;52.110;5.548;2022-11-20T08:56:57;7.20;;;6.50;;
24743;SDS011;12844;52.110;5.548;2022-11-20T08:59:23;7.47;;;6.47;;
24743;SDS011;12844;52.110;5.548;2022-11-20T09:01:48;8.43;;;7.07;;
24743;SDS011;12844;52.110;5.548;2022-11-20T09:04:14;8.15;;;6.93;;
24743;SDS011;12844;52.110;5.548;2022-11-20T09:06:40;7.28;;;6.57;;
24743;SDS011;12844;52.110;5.548;2022-11-20T09:09:06;8.20;;;7.40;;
24743;SDS011;12844;52.110;5.548;2022-11-20T09:11:31;7.80;;;6.75;;
24743;SDS011;12844;52.110;5.548;2022-11-20T09:13:57;8.07;;;7.07;;
24743;SDS011;12844;52.110;5.548;2022-11-20T09:16:23;8.20;;;7.25;;
24743;SDS011;12844;52.110;5.548;2022-11-20T09:18:49;8.20;;;7.25;;
24743;SDS011;12844;52.110;5.548;2022-11-20T09:21:15;8.65;;;7.05;;
24743;SDS011;12844;52.110;5.548;2022-11-20T09:23:40;7.68;;;6.65;;
24743;SDS011;12844;52.110;5.548;2022-11-20T09:26:06;7.65;;;6.85;;
24743;SDS011;12844;52.110;5.548;2022-11-20T09:28:34;7.32;;;6.63;;
24743;SDS011;12844;52.110;5.548;2022-11-20T09:31:00;7.90;;;6.95;;
24743;SDS011;12844;52.110;5.548;2022-11-20T09:33:29;7.95;;;6.63;;
24743;SDS011;12844;52.110;5.548;2022-11-20T09:35:55;7.82;;;6.70;;
24743;SDS011;12844;52.110;5.548;2022-11-20T09:38:20;7.15;;;6.45;;
24743;SDS011;12844;52.110;5.548;2022-11-20T09:41:02;9.05;;;7.00;;
24743;SDS011;12844;52.110;5.548;2022-11-20T09:54:20;7.47;;;6.70;;
24743;SDS011;12844;52.110;5.548;2022-11-20T09:56:58;7.20;;;6.22;;
24743;SDS011;12844;52.110;5.548;2022-11-20T10:02:37;7.75;;;6.75;;
24743;SDS011;12844;52.110;5.548;2022-11-20T10:10:44;7.80;;;7.00;;
24743;SDS011;12844;52.110;5.548;2022-11-20T10:13:17;7.85;;;7.05;;
24743;SDS011;12844;52.110;5.548;2022-11-20T10:24:24;7.45;;;6.75;;
24743;SDS011;12844;52.110;5.548;2022-11-20T10:29:54;7.60;;;6.72;;
24743;SDS011;12844;52.110;5.548;2022-11-20T10:32:36;7.88;;;6.95;;
24743;SDS011;12844;52.110;5.548;2022-11-20T10:35:14;7.47;;;6.63;;
24743;SDS011;12844;52.110;5.548;2022-11-20T10:37:46;7.40;;;6.70;;
24743;SDS011;12844;52.110;5.548;2022-11-20T10:40:38;7.65;;;6.85;;
24743;SDS011;12844;52.110;5.548;2022-11-20T10:45:57;7.32;;;6.55;;
24743;SDS011;12844;52.110;5.548;2022-11-20T10:48:40;7.75;;;7.00;;
24743;SDS011;12844;52.110;5.548;2022-11-20T10:53:53;7.90;;;6.72;;
24743;SDS011;12844;52.110;5.548;2022-11-20T10:56:53;7.55;;;6.75;;
24743;SDS011;12844;52.110;5.548;2022-11-20T11:02:18;7.97;;;6.93;;
24743;SDS011;12844;52.110;5.548;2022-11-20T11:04:49;7.68;;;6.88;;
24743;SDS011;12844;52.110;5.548;2022-11-20T11:07:17;7.63;;;6.80;;
24743;SDS011;12844;52.110;5.548;2022-11-20T11:09:52;7.40;;;6.60;;
24743;SDS011;12844;52.110;5.548;2022-11-20T11:12:20;7.45;;;6.72;;
24743;SDS011;12844;52.110;5.548;2022-11-20T11:14:54;7.57;;;6.80;;
24743;SDS011;12844;52.110;5.548;2022-11-20T11:17:30;7.68;;;6.97;;
24743;SDS011;12844;52.110;5.548;2022-11-20T11:20:05;7.72;;;6.70;;
24743;SDS011;12844;52.110;5.548;2022-11-20T11:22:33;7.10;;;6.30;;
24743;SDS011;12844;52.110;5.548;2022-11-20T11:25:07;7.20;;;6.50;;
24743;SDS011;12844;52.110;5.548;2022-11-20T11:27:48;8.35;;;6.97;;
24743;SDS011;12844;52.110;5.548;2022-11-20T11:30:16;7.25;;;6.50;;
24743;SDS011;12844;52.110;5.548;2022-11-20T11:32:43;7.65;;;6.85;;
24743;SDS011;12844;52.110;5.548;2022-11-20T11:35:23;7.72;;;6.80;;
24743;SDS011;12844;52.110;5.548;2022-11-20T11:37:51;7.57;;;6.78;;
24743;SDS011;12844;52.110;5.548;2022-11-20T11:40:19;7.97;;;7.00;;
24743;SDS011;12844;52.110;5.548;2022-11-20T11:42:49;7.20;;;6.50;;
24743;SDS011;12844;52.110;5.548;2022-11-20T11:45:19;7.85;;;6.75;;
24743;SDS011;12844;52.110;5.548;2022-11-20T11:47:48;7.43;;;6.63;;
24743;SDS011;12844;52.110;5.548;2022-11-20T11:50:15;7.47;;;6.68;;
24743;SDS011;12844;52.110;5.548;2022-11-20T11:55:25;7.68;;;6.82;;
24743;SDS011;12844;52.110;5.548;2022-11-20T11:58:08;8.00;;;7.20;;
24743;SDS011;12844;52.110;5.548;2022-11-20T12:01:07;7.43;;;6.65;;
24743;SDS011;12844;52.110;5.548;2022-11-20T12:03:47;7.65;;;6.85;;
24743;SDS011;12844;52.110;5.548;2022-11-20T12:06:24;7.28;;;6.57;;
24743;SDS011;12844;52.110;5.548;2022-11-20T12:08:53;7.40;;;6.70;;
24743;SDS011;12844;52.110;5.548;2022-11-20T12:16:36;7.55;;;6.30;;
24743;SDS011;12844;52.110;5.548;2022-11-20T12:19:04;7.35;;;6.55;;
24743;SDS011;12844;52.110;5.548;2022-11-20T12:24:39;7.82;;;6.78;;
24743;SDS011;12844;52.110;5.548;2022-11-20T12:27:17;7.38;;;6.55;;
24743;SDS011;12844;52.110;5.548;2022-11-20T12:30:03;8.10;;;6.55;;
24743;SDS011;12844;52.110;5.548;2022-11-20T12:32:55;8.30;;;7.28;;
24743;SDS011;12844;52.110;5.548;2022-11-20T12:35:36;7.90;;;7.10;;
24743;SDS011;12844;52.110;5.548;2022-11-20T12:43:27;7.32;;;6.55;;
24743;SDS011;12844;52.110;5.548;2022-11-20T12:51:30;8.10;;;7.15;;
24743;SDS011;12844;52.110;5.548;2022-11-20T12:57:18;7.53;;;6.78;;
24743;SDS011;12844;52.110;5.548;2022-11-20T13:02:48;7.30;;;6.60;;
24743;SDS011;12844;52.110;5.548;2022-11-20T13:08:27;7.68;;;6.70;;
24743;SDS011;12844;52.110;5.548;2022-11-20T13:13:48;7.80;;;6.63;;
24743;SDS011;12844;52.110;5.548;2022-11-20T13:19:29;7.68;;;6.65;;
24743;SDS011;12844;52.110;5.548;2022-11-20T13:21:55;7.82;;;6.43;;
24743;SDS011;12844;52.110;5.548;2022-11-20T13:27:04;7.50;;;6.70;;
24743;SDS011;12844;52.110;5.548;2022-11-20T13:32:11;7.60;;;6.35;;
24743;SDS011;12844;52.110;5.548;2022-11-20T13:34:38;7.75;;;6.95;;
24743;SDS011;12844;52.110;5.548;2022-11-20T13:37:04;8.50;;;6.60;;
24743;SDS011;12844;52.110;5.548;2022-11-20T13:39:31;7.63;;;6.80;;
24743;SDS011;12844;52.110;5.548;2022-11-20T13:42:02;7.13;;;6.20;;
24743;SDS011;12844;52.110;5.548;2022-11-20T13:44:51;7.65;;;6.72;;
24743;SDS011;12844;52.110;5.548;2022-11-20T13:47:20;8.75;;;7.10;;
24743;SDS011;12844;52.110;5.548;2022-11-20T13:49:48;7.35;;;6.65;;
24743;SDS011;12844;52.110;5.548;2022-11-20T13:52:39;8.13;;;6.80;;
24743;SDS011;12844;52.110;5.548;2022-11-20T14:00:56;7.75;;;6.57;;
24743;SDS011;12844;52.110;5.548;2022-11-20T14:03:22;8.52;;;6.88;;
24743;SDS011;12844;52.110;5.548;2022-11-20T14:05:56;7.40;;;6.30;;
24743;SDS011;12844;52.110;5.548;2022-11-20T14:08:30;7.68;;;6.40;;
24743;SDS011;12844;52.110;5.548;2022-11-20T14:11:03;7.85;;;7.05;;
24743;SDS011;12844;52.110;5.548;2022-11-20T14:13:30;6.88;;;6.07;;
24743;SDS011;12844;52.110;5.548;2022-11-20T14:15:56;8.07;;;6.65;;
24743;SDS011;12844;52.110;5.548;2022-11-20T14:18:25;7.50;;;6.43;;
24743;SDS011;12844;52.110;5.548;2022-11-20T14:20:52;7.85;;;6.40;;
24743;SDS011;12844;52.110;5.548;2022-11-20T14:23:25;8.85;;;7.70;;
24743;SDS011;12844;52.110;5.548;2022-11-20T14:25:51;7.60;;;6.68;;
24743;SDS011;12844;52.110;5.548;2022-11-20T14:28:27;7.95;;;6.70;;
24743;SDS011;12844;52.110;5.548;2022-11-20T14:30:55;7.78;;;6.63;;
24743;SDS011;12844;52.110;5.548;2022-11-20T14:33:22;7.57;;;6.57;;
24743;SDS011;12844;52.110;5.548;2022-11-20T14:35:51;7.45;;;6.30;;
24743;SDS011;12844;52.110;5.548;2022-11-20T14:38:20;7.57;;;6.60;;
24743;SDS011;12844;52.110;5.548;2022-11-20T14:40:49;7.85;;;6.50;;
24743;SDS011;12844;52.110;5.548;2022-11-20T14:43:19;8.38;;;6.68;;
24743;SDS011;12844;52.110;5.548;2022-11-20T14:46:00;8.68;;;6.95;;
24743;SDS011;12844;52.110;5.548;2022-11-20T14:48:31;7.88;;;6.50;;
24743;SDS011;12844;52.110;5.548;2022-11-20T14:51:01;8.15;;;7.05;;
24743;SDS011;12844;52.110;5.548;2022-11-20T14:53:27;7.90;;;6.55;;
24743;SDS011;12844;52.110;5.548;2022-11-20T14:55:56;7.13;;;6.20;;
24743;SDS011;12844;52.110;5.548;2022-11-20T14:58:24;7.65;;;6.72;;
24743;SDS011;12844;52.110;5.548;2022-11-20T15:01:06;8.13;;;6.55;;
24743;SDS011;12844;52.110;5.548;2022-11-20T15:03:39;7.85;;;6.65;;
24743;SDS011;12844;52.110;5.548;2022-11-20T15:06:06;7.28;;;6.45;;
24743;SDS011;12844;52.110;5.548;2022-11-20T15:08:33;8.63;;;6.68;;
24743;SDS011;12844;52.110;5.548;2022-11-20T15:10:59;7.68;;;6.45;;
24743;SDS011;12844;52.110;5.548;2022-11-20T15:13:34;7.32;;;6.13;;
24743;SDS011;12844;52.110;5.548;2022-11-20T15:16:02;8.52;;;6.85;;
24743;SDS011;12844;52.110;5.548;2022-11-20T15:18:37;7.65;;;6.20;;
24743;SDS011;12844;52.110;5.548;2022-11-20T15:21:10;7.45;;;6.40;;
24743;SDS011;12844;52.110;5.548;2022-11-20T15:23:37;7.63;;;6.72;;
24743;SDS011;12844;52.110;5.548;2022-11-20T15:26:06;7.97;;;6.70;;
24743;SDS011;12844;52.110;5.548;2022-11-20T15:28:34;8.70;;;7.03;;
24743;SDS011;12844;52.110;5.548;2022-11-20T15:31:04;8.60;;;7.25;;
24743;SDS011;12844;52.110;5.548;2022-11-20T15:33:30;7.63;;;6.82;;
24743;SDS011;12844;52.110;5.548;2022-11-20T15:35:56;7.57;;;6.38;;
24743;SDS011;12844;52.110;5.548;2022-11-20T15:38:22;8.25;;;6.72;;
24743;SDS011;12844;52.110;5.548;2022-11-20T15:40:48;7.88;;;6.65;;
24743;SDS011;12844;52.110;5.548;2022-11-20T15:43:14;8.52;;;6.70;;
24743;SDS011;12844;52.110;5.548;2022-11-20T15:45:40;7.68;;;6.57;;
24743;SDS011;12844;52.110;5.548;2022-11-20T15:48:09;8.23;;;6.88;;
24743;SDS011;12844;52.110;5.548;2022-11-20T15:50:47;7.72;;;6.90;;
24743;SDS011;12844;52.110;5.548;2022-11-20T15:53:17;7.68;;;6.75;;
24743;SDS011;12844;52.110;5.548;2022-11-20T15:55:43;8.05;;;7.25;;
24743;SDS011;12844;52.110;5.548;2022-11-20T15:58:09;7.35;;;6.18;;
24743;SDS011;12844;52.110;5.548;2022-11-20T16:00:34;8.63;;;6.90;;
24743;SDS011;12844;52.110;5.548;2022-11-20T16:03:00;9.00;;;6.82;;
24743;SDS011;12844;52.110;5.548;2022-11-20T16:05:29;8.50;;;6.70;;
24743;SDS011;12844;52.110;5.548;2022-11-20T16:07:54;8.52;;;6.68;;
24743;SDS011;12844;52.110;5.548;2022-11-20T16:10:20;8.07;;;6.80;;
24743;SDS011;12844;52.110;5.548;2022-11-20T16:12:46;7.95;;;6.82;;
24743;SDS011;12844;52.110;5.548;2022-11-20T16:15:30;7.68;;;6.70;;
24743;SDS011;12844;52.110;5.548;2022-11-20T16:18:11;8.80;;;6.78;;
24743;SDS011;12844;52.110;5.548;2022-11-20T16:20:47;6.90;;;6.20;;
24743;SDS011;12844;52.110;5.548;2022-11-20T16:23:15;7.30;;;6.47;;
24743;SDS011;12844;52.110;5.548;2022-11-20T16:25:41;7.70;;;6.50;;
24743;SDS011;12844;52.110;5.548;2022-11-20T16:28:07;7.85;;;6.63;;
24743;SDS011;12844;52.110;5.548;2022-11-20T16:30:33;7.15;;;6.43;;
24743;SDS011;12844;52.110;5.548;2022-11-20T16:32:59;7.95;;;6.95;;
24743;SDS011;12844;52.110;5.548;2022-11-20T16:35:28;7.43;;;6.63;;
24743;SDS011;12844;52.110;5.548;2022-11-20T16:37:54;8.00;;;6.25;;
24743;SDS011;12844;52.110;5.548;2022-11-20T16:40:21;7.68;;;6.57;;
24743;SDS011;12844;52.110;5.548;2022-11-20T16:42:48;7.43;;;6.47;;
24743;SDS011;12844;52.110;5.548;2022-11-20T16:45:14;8.50;;;6.57;;
24743;SDS011;12844;52.110;5.548;2022-11-20T16:47:39;7.72;;;6.63;;
24743;SDS011;12844;52.110;5.548;2022-11-20T16:50:07;7.60;;;6.20;;
24743;SDS011;12844;52.110;5.548;2022-11-20T16:52:33;8.55;;;6.65;;
24743;SDS011;12844;52.110;5.548;2022-11-20T16:54:58;7.20;;;6.03;;
24743;SDS011;12844;52.110;5.548;2022-11-20T16:57:26;8.07;;;6.20;;
24743;SDS011;12844;52.110;5.548;2022-11-20T16:59:53;7.75;;;6.22;;
24743;SDS011;12844;52.110;5.548;2022-11-20T17:02:19;8.05;;;6.60;;
24743;SDS011;12844;52.110;5.548;2022-11-20T17:04:44;7.72;;;6.43;;
24743;SDS011;12844;52.110;5.548;2022-11-20T17:07:09;7.40;;;6.35;;
24743;SDS011;12844;52.110;5.548;2022-11-20T17:09:36;7.10;;;6.38;;
24743;SDS011;12844;52.110;5.548;2022-11-20T17:12:02;7.40;;;6.60;;
24743;SDS011;12844;52.110;5.548;2022-11-20T17:14:27;7.75;;;6.40;;
24743;SDS011;12844;52.110;5.548;2022-11-20T17:16:53;6.78;;;5.90;;
24743;SDS011;12844;52.110;5.548;2022-11-20T17:19:18;7.85;;;6.55;;
24743;SDS011;12844;52.110;5.548;2022-11-20T17:21:44;7.65;;;6.38;;
24743;SDS011;12844;52.110;5.548;2022-11-20T17:24:11;7.53;;;6.25;;
24743;SDS011;12844;52.110;5.548;2022-11-20T17:26:39;7.25;;;6.22;;
24743;SDS011;12844;52.110;5.548;2022-11-20T17:29:10;8.65;;;6.88;;
24743;SDS011;12844;52.110;5.548;2022-11-20T17:31:40;7.85;;;6.50;;
24743;SDS011;12844;52.110;5.548;2022-11-20T17:34:07;7.38;;;6.25;;
24743;SDS011;12844;52.110;5.548;2022-11-20T17:36:35;7.20;;;6.13;;
24743;SDS011;12844;52.110;5.548;2022-11-20T17:39:02;7.40;;;6.35;;
24743;SDS011;12844;52.110;5.548;2022-11-20T17:41:28;7.68;;;6.60;;
24743;SDS011;12844;52.110;5.548;2022-11-20T17:43:54;7.35;;;6.22;;
24743;SDS011;12844;52.110;5.548;2022-11-20T17:46:22;8.32;;;6.75;;
24743;SDS011;12844;52.110;5.548;2022-11-20T17:48:49;7.82;;;6.70;;
24743;SDS011;12844;52.110;5.548;2022-11-20T17:51:18;7.22;;;6.38;;
24743;SDS011;12844;52.110;5.548;2022-11-20T17:53:47;7.50;;;6.30;;
24743;SDS011;12844;52.110;5.548;2022-11-20T17:56:14;7.63;;;6.40;;